createdAt,value
2022-11-21T00:08:58.748Z,97311.34
2022-11-21T00:15:28.381Z,97303.66
2022-11-21T00:30:15.460Z,97271.28
2022-11-21T00:41:42.750Z,97256.78
2022-11-21T00:48:15.641Z,97245.09
2022-11-21T00:51:23.892Z,97245.41
2022-11-21T00:57:50.047Z,97239.13
2022-11-21T01:00:57.249Z,97246.69
2022-11-21T01:07:33.753Z,97254.81
2022-11-21T01:21:00.796Z,97235.50
2022-11-21T01:27:35.610Z,97241.16
2022-11-21T01:30:46.877Z,97234.22
2022-11-21T01:33:51.197Z,97225.44
2022-11-21T01:37:01.365Z,97220.97
2022-11-21T01:40:30.598Z,97216.38
2022-11-21T01:43:36.565Z,97213.44
2022-11-21T01:46:43.668Z,97204.22
2022-11-21T01:49:54.972Z,97196.53
2022-11-21T01:52:59.155Z,97199.13
2022-11-21T01:59:28.742Z,97179.59
2022-11-21T02:02:38.869Z,97176.97
2022-11-21T02:05:55.365Z,97179.66
2022-11-21T02:08:59.441Z,97174.41
2022-11-21T02:12:04.522Z,97168.31
2022-11-21T02:15:11.242Z,97185.09
2022-11-21T02:21:46.871Z,97175.41
2022-11-21T02:24:53.046Z,97177.47
2022-11-21T02:31:28.234Z,97175.38
2022-11-21T02:51:39.928Z,97120.25
2022-11-21T02:54:47.436Z,97116.34
2022-11-21T02:58:01.744Z,97102.81
2022-11-21T03:04:46.685Z,97099.59
2022-11-21T03:07:57.667Z,97094.56
2022-11-21T03:44:14.023Z,97062.34
2022-11-21T03:47:25.418Z,97060.88
2022-11-21T03:54:04.574Z,97049.81
2022-11-21T03:57:10.860Z,97040.00
2022-11-21T04:00:15.430Z,97050.78
2022-11-21T04:03:21.390Z,97052.16
2022-11-21T04:06:25.445Z,97041.03
2022-11-21T04:09:29.962Z,97046.59
2022-11-21T04:12:35.489Z,97046.75
2022-11-21T04:15:51.217Z,97040.47
2022-11-21T04:18:57.160Z,97035.19
2022-11-21T04:22:08.702Z,97037.47
2022-11-21T04:28:35.410Z,97033.03
2022-11-21T04:44:22.723Z,97033.41
2022-11-21T04:47:29.282Z,97028.25
2022-11-21T04:53:55.264Z,97008.72
2022-11-21T05:08:54.201Z,96993.09
2022-11-21T06:36:58.048Z,96912.03
2022-11-21T06:40:01.674Z,96900.59
2022-11-21T06:43:06.226Z,96906.78
2022-11-21T06:46:11.785Z,96888.47
2022-11-21T06:49:20.227Z,96889.97
2022-11-21T06:52:24.170Z,96883.03
2022-11-21T06:55:28.283Z,96880.06
2022-11-21T06:58:32.075Z,96869.78
2022-11-21T07:01:36.102Z,96875.47
2022-11-21T07:04:40.363Z,96868.59
2022-11-21T07:07:44.727Z,96853.88
2022-11-21T07:11:22.605Z,96854.66
2022-11-21T07:17:44.557Z,96847.56
2022-11-21T07:20:51.725Z,96849.56
2022-11-21T07:23:59.733Z,96848.63
2022-11-21T07:27:11.343Z,96843.75
2022-11-21T07:30:19.582Z,96847.88
2022-11-21T07:33:28.399Z,96853.91
2022-11-21T07:36:53.313Z,96850.44
2022-11-21T07:40:54.476Z,96846.72
2022-11-21T07:43:39.438Z,96843.13
2022-11-21T07:46:45.649Z,96838.84
2022-11-21T07:49:49.567Z,96833.06
2022-11-21T07:52:53.589Z,96834.16
2022-11-21T07:55:58.885Z,96822.91
2022-11-21T07:59:03.090Z,96823.00
2022-11-21T08:02:07.189Z,96819.31
2022-11-21T08:05:11.646Z,96802.66
2022-11-21T08:08:15.517Z,96801.03
2022-11-21T08:11:20.942Z,96793.47
2022-11-21T08:14:26.334Z,96781.53
2022-11-21T08:17:30.691Z,96761.53
2022-11-21T08:20:34.416Z,96764.81
2022-11-21T08:23:38.459Z,96751.69
2022-11-21T08:26:42.540Z,96738.09
2022-11-21T08:29:49.722Z,96732.59
2022-11-21T08:32:54.068Z,96724.31
2022-11-21T08:35:59.801Z,96709.66
2022-11-21T08:39:03.925Z,96702.91
2022-11-21T08:42:07.982Z,96697.22
2022-11-21T08:45:11.904Z,96687.19
2022-11-21T08:48:17.001Z,96666.94
2022-11-21T08:51:20.986Z,96640.59
2022-11-21T08:54:25.417Z,96635.94
2022-11-21T08:57:31.104Z,96626.19
2022-11-21T09:00:36.148Z,96614.97
2022-11-21T09:03:41.252Z,96614.81
2022-11-21T09:06:48.782Z,96606.13
2022-11-21T09:09:56.561Z,96613.28
2022-11-21T09:13:02.185Z,96601.59
2022-11-21T09:16:06.739Z,96607.03
2022-11-21T09:19:10.635Z,96600.84
2022-11-21T09:22:14.558Z,96609.22
2022-11-21T09:25:19.710Z,96607.53
2022-11-21T09:28:23.737Z,96599.34
2022-11-21T09:31:27.774Z,96590.94
2022-11-21T09:34:43.093Z,96585.78
2022-11-21T09:37:47.390Z,96584.81
2022-11-21T09:40:52.594Z,96574.94
2022-11-21T09:43:58.059Z,96573.91
2022-11-21T09:47:02.459Z,96565.03
2022-11-21T09:50:06.950Z,96553.03
2022-11-21T09:53:15.390Z,96545.53
2022-11-21T09:56:24.150Z,96539.09
2022-11-21T09:59:28.487Z,96527.16
2022-11-21T10:02:33.835Z,96516.34
2022-11-21T10:05:38.183Z,96510.06
2022-11-21T10:08:42.283Z,96501.88
2022-11-21T10:11:51.365Z,96490.88
2022-11-21T10:15:01.475Z,96487.31
2022-11-21T10:18:11.393Z,96484.78
2022-11-21T10:21:19.964Z,96472.06
2022-11-21T10:24:30.542Z,96474.16
2022-11-21T10:27:38.390Z,96443.84
2022-11-21T10:30:42.341Z,96430.09
2022-11-21T10:34:01.228Z,96419.56
2022-11-21T10:37:11.555Z,96415.75
2022-11-21T10:40:18.853Z,96407.50
2022-11-21T10:43:25.239Z,96392.34
2022-11-21T10:46:30.782Z,96384.53
2022-11-21T10:49:36.167Z,96381.06
2022-11-21T10:52:40.347Z,96363.56
2022-11-21T10:55:50.023Z,96350.66
2022-11-21T10:58:54.107Z,96335.66
2022-11-21T11:02:00.577Z,96334.56
2022-11-21T11:05:04.807Z,96325.28
2022-11-21T11:08:12.661Z,96307.72
2022-11-21T11:11:17.356Z,96297.72
2022-11-21T11:14:29.431Z,96294.28
2022-11-21T11:17:44.985Z,96285.84
2022-11-21T11:20:55.532Z,96285.03
2022-11-21T11:24:00.950Z,96274.25
2022-11-21T11:27:05.400Z,96276.91
2022-11-21T11:30:09.262Z,96257.66
2022-11-21T11:33:13.112Z,96256.31
2022-11-21T11:36:18.432Z,96238.94
2022-11-21T11:39:22.643Z,96228.16
2022-11-21T11:42:27.828Z,96214.66
2022-11-21T11:45:31.730Z,96200.66
2022-11-21T11:48:50.462Z,96196.97
2022-11-21T11:52:00.699Z,96184.03
2022-11-21T11:55:07.173Z,96183.50
2022-11-21T11:58:19.437Z,96171.00
2022-11-21T12:01:23.709Z,96173.91
2022-11-21T12:04:31.946Z,96179.03
2022-11-21T12:11:00.329Z,96167.28
2022-11-21T12:14:04.307Z,96166.72
2022-11-21T12:17:12.775Z,96169.66
2022-11-21T12:20:17.045Z,96158.03
2022-11-21T12:23:23.512Z,96141.97
2022-11-21T12:26:39.102Z,96144.09
2022-11-21T12:29:49.949Z,96130.84
2022-11-21T12:32:57.761Z,96112.66
2022-11-21T12:36:16.790Z,96099.41
2022-11-21T12:39:22.489Z,96109.91
2022-11-21T12:42:27.540Z,96093.38
2022-11-21T12:45:37.295Z,96080.94
2022-11-21T12:48:42.875Z,96084.34
2022-11-21T12:51:54.860Z,96081.28
2022-11-21T12:55:02.095Z,96071.75
2022-11-21T13:01:46.096Z,96053.69
2022-11-21T13:04:57.721Z,96056.28
2022-11-21T13:08:03.975Z,96045.69
2022-11-21T13:11:08.499Z,96037.81
2022-11-21T13:14:23.473Z,96017.72
2022-11-21T13:17:27.872Z,96020.16
2022-11-21T13:20:34.175Z,96026.25
2022-11-21T13:23:40.695Z,96010.69
2022-11-21T13:26:45.513Z,95982.38
2022-11-21T13:29:50.619Z,95980.28
2022-11-21T13:32:56.370Z,95972.06
2022-11-21T13:36:00.556Z,95975.53
2022-11-21T13:39:04.479Z,95979.44
2022-11-21T13:42:20.006Z,95970.75
2022-11-21T13:45:24.984Z,95989.47
2022-11-21T13:48:31.175Z,95979.47
2022-11-21T13:51:35.194Z,95973.78
2022-11-21T13:54:39.205Z,95968.22
2022-11-21T13:57:43.230Z,95956.09
2022-11-21T14:00:48.771Z,95950.25
2022-11-21T14:03:54.904Z,95956.38
2022-11-21T14:06:59.183Z,95953.03
2022-11-21T14:10:10.165Z,95943.31
2022-11-21T14:13:27.349Z,95952.41
2022-11-21T14:16:37.534Z,95958.84
2022-11-21T14:19:44.968Z,95950.72
2022-11-21T14:22:50.170Z,95936.22
2022-11-21T14:25:58.745Z,95924.59
2022-11-21T14:29:03.112Z,95919.84
2022-11-21T14:32:10.952Z,95910.06
2022-11-21T14:35:16.983Z,95895.94
2022-11-21T14:38:21.364Z,95893.78
2022-11-21T14:41:26.862Z,95894.66
2022-11-21T14:44:33.564Z,95893.31
2022-11-21T14:47:39.186Z,95888.25
2022-11-21T14:50:45.896Z,95879.84
2022-11-21T14:53:52.787Z,95876.41
2022-11-21T14:57:01.650Z,95875.66
2022-11-21T15:00:05.545Z,95868.34
2022-11-21T15:03:09.411Z,95860.72
2022-11-21T15:06:27.425Z,95847.81
2022-11-21T15:10:40.130Z,95842.19
2022-11-21T15:12:56.409Z,95844.34
2022-11-21T15:17:36.459Z,95843.53
2022-11-21T15:19:28.986Z,95840.34
2022-11-21T15:22:33.465Z,95843.22
2022-11-21T15:25:37.407Z,95834.03
2022-11-21T15:28:42.502Z,95829.91
2022-11-21T15:31:46.523Z,95825.31
2022-11-21T15:34:53.287Z,95823.97
2022-11-21T15:37:57.720Z,95819.50
2022-11-21T15:41:04.403Z,95808.53
2022-11-21T15:44:09.695Z,95819.22
2022-11-21T15:47:14.096Z,95815.72
2022-11-21T15:50:18.126Z,95827.22
2022-11-21T15:53:21.957Z,95825.88
2022-11-21T15:56:26.059Z,95810.97
2022-11-21T15:59:30.044Z,95812.97
2022-11-21T16:02:34.413Z,95816.69
2022-11-21T16:05:38.260Z,95808.22
2022-11-21T16:08:44.335Z,95821.53
2022-11-21T16:11:48.580Z,95832.88
2022-11-21T16:14:52.326Z,95833.31
2022-11-21T16:17:56.140Z,95841.72
2022-11-21T16:20:59.726Z,95857.59
2022-11-21T16:24:03.696Z,95865.78
2022-11-21T16:27:07.530Z,95869.44
2022-11-21T16:30:14.035Z,95855.00
2022-11-21T16:33:21.640Z,95856.34
2022-11-21T16:36:29.323Z,95851.56
2022-11-21T16:39:33.232Z,95848.88
2022-11-21T16:42:37.243Z,95843.06
2022-11-21T16:45:42.315Z,95843.25
2022-11-21T16:48:46.509Z,95836.97
2022-11-21T16:51:50.426Z,95829.88
2022-11-21T16:54:54.127Z,95830.13
2022-11-21T16:57:58.192Z,95827.34
2022-11-21T17:01:03.219Z,95813.97
2022-11-21T17:04:07.051Z,95816.09
2022-11-21T17:07:11.105Z,95813.44
2022-11-21T17:10:15.190Z,95810.53
2022-11-21T17:13:19.462Z,95819.50
2022-11-21T17:16:24.075Z,95802.16
2022-11-21T17:19:29.584Z,95814.22
2022-11-21T17:22:33.553Z,95796.53
2022-11-21T17:25:37.612Z,95792.63
2022-11-21T17:28:45.566Z,95789.75
2022-11-21T17:31:49.899Z,95781.94
2022-11-21T17:34:53.345Z,95788.25
2022-11-21T17:37:59.367Z,95789.03
2022-11-21T17:41:03.472Z,95792.22
2022-11-21T17:44:07.412Z,95788.28
2022-11-21T17:47:11.302Z,95788.78
2022-11-21T17:50:15.456Z,95804.03
2022-11-21T17:53:19.948Z,95805.81
2022-11-21T18:03:32.629Z,95826.94
2022-11-21T18:06:40.489Z,95816.50
2022-11-21T18:10:35.041Z,95811.25
2022-11-21T18:16:34.870Z,95802.69
2022-11-21T18:59:37.542Z,95759.94
2022-11-21T19:44:10.676Z,95752.84
2022-11-21T19:50:55.382Z,95736.28
2022-11-21T19:54:17.953Z,95721.78
2022-11-21T20:29:40.958Z,95697.00
2022-11-21T20:32:59.361Z,95709.56
2022-11-21T20:36:12.529Z,95699.19
2022-11-21T20:39:20.056Z,95696.81
2022-11-21T20:46:22.790Z,95705.34
2022-11-21T20:56:23.318Z,95697.03
2022-11-21T21:03:11.503Z,95692.50
2022-11-21T21:06:19.124Z,95688.78
2022-11-21T21:09:28.987Z,95682.78
2022-11-21T21:12:47.262Z,95687.03
2022-11-21T21:23:08.699Z,95678.53
2022-11-21T21:29:52.984Z,95691.16
2022-11-21T21:32:57.172Z,95703.50
2022-11-21T21:36:03.861Z,95707.75
2022-11-21T21:39:10.340Z,95704.53
2022-11-21T21:42:14.884Z,95705.06
2022-11-21T21:45:29.619Z,95716.13
2022-11-21T21:48:39.909Z,95714.03
2022-11-21T21:51:46.132Z,95722.84
2022-11-21T21:54:50.872Z,95721.47
2022-11-21T21:57:56.002Z,95723.59
2022-11-21T22:01:00.349Z,95719.88
2022-11-21T22:04:06.525Z,95715.22
2022-11-21T22:07:10.487Z,95712.59
2022-11-21T22:10:14.263Z,95707.34
2022-11-21T22:13:19.483Z,95696.25
2022-11-21T22:16:23.424Z,95701.78
2022-11-21T22:19:28.098Z,95694.69
2022-11-21T22:22:33.501Z,95701.22
2022-11-21T22:25:37.823Z,95698.09
2022-11-21T22:28:42.000Z,95703.06
2022-11-21T22:31:45.913Z,95694.09
2022-11-21T22:34:56.310Z,95698.63
2022-11-21T22:38:00.090Z,95693.38
2022-11-21T22:41:04.082Z,95701.03
2022-11-21T22:44:09.102Z,95696.06
2022-11-21T22:47:12.832Z,95689.72
2022-11-21T22:50:16.663Z,95697.34
2022-11-21T22:53:21.107Z,95686.53
2022-11-21T22:56:24.964Z,95692.63
2022-11-21T22:59:30.136Z,95682.38
2022-11-21T23:02:34.943Z,95686.38
2022-11-21T23:05:38.899Z,95697.91
2022-11-21T23:08:43.281Z,95696.56
2022-11-21T23:11:47.421Z,95706.63
2022-11-21T23:14:52.269Z,95716.88
2022-11-21T23:17:56.088Z,95721.34
2022-11-21T23:20:59.740Z,95735.00
2022-11-21T23:24:03.596Z,95735.22
2022-11-21T23:27:07.759Z,95735.44
2022-11-21T23:30:11.781Z,95741.28
2022-11-21T23:33:17.276Z,95753.06
2022-11-21T23:36:22.285Z,95764.63
2022-11-21T23:39:27.875Z,95766.72
2022-11-21T23:42:32.286Z,95767.53
2022-11-21T23:45:36.466Z,95763.78
2022-11-21T23:48:40.195Z,95761.94
2022-11-21T23:51:21.966Z,95762.97
2022-11-21T23:54:25.951Z,95777.22
2022-11-21T23:57:31.099Z,95779.81
